Time;durP1;ratioP1;P1;durP2;ratioP2;P2;SDS_P1;SDS_P2;PMS_P1;PMS_P2;Temp;Humidity;BMP_temperature;BMP_pressure;BME280_temperature;BME280_humidity;BME280_pressure;Samples;Min_cycle;Max_cycle;Signal;HPM_P1;HPM_P2
2022/10/23 04:02:22;;;;;;;3.03;0.20;;;11.90;98.30;;;;;;5376067;23;84206;-71
2022/10/23 04:04:48;;;;;;;1.67;0.20;;;11.90;98.40;;;;;;4899149;28;81227;-74
2022/10/23 04:07:14;;;;;;;2.92;0.20;;;11.80;98.30;;;;;;4896334;28;82339;-73
2022/10/23 04:09:39;;;;;;;0.95;0.20;;;11.90;98.50;;;;;;4893275;28;84508;-74
2022/10/23 04:12:05;;;;;;;2.85;0.30;;;11.80;98.50;;;;;;4902929;28;81864;-73
2022/10/23 04:14:31;;;;;;;1.35;0.22;;;11.80;98.60;;;;;;4902927;28;81917;-71
2022/10/23 04:16:57;;;;;;;8.07;1.58;;;11.80;99.00;;;;;;4901719;28;81872;-74
2022/10/23 04:19:22;;;;;;;4.90;0.95;;;11.70;99.40;;;;;;4900375;28;82452;-72
2022/10/23 04:21:48;;;;;;;5.85;0.50;;;11.70;99.50;;;;;;4901535;28;82085;-74
2022/10/23 04:24:14;;;;;;;5.82;0.30;;;11.70;99.70;;;;;;4900980;28;81952;-70
2022/10/23 04:26:39;;;;;;;3.67;0.40;;;11.70;99.90;;;;;;4901996;28;81571;-71
2022/10/23 04:29:06;;;;;;;5.10;0.70;;;11.60;99.90;;;;;;4900384;28;82149;-72
2022/10/23 04:31:31;;;;;;;6.60;1.40;;;11.60;99.90;;;;;;4900828;28;81898;-71
2022/10/23 04:33:57;;;;;;;6.43;0.32;;;11.60;99.90;;;;;;4902839;28;81450;-75
2022/10/23 04:36:23;;;;;;;3.03;0.20;;;11.60;99.90;;;;;;4901011;28;81802;-71
2022/10/23 04:38:48;;;;;;;3.10;0.35;;;11.60;99.90;;;;;;4909993;28;81693;-71
2022/10/23 04:41:14;;;;;;;2.75;0.32;;;11.70;99.90;;;;;;4902772;28;81407;-72
2022/10/23 04:43:40;;;;;;;3.25;0.50;;;11.70;99.90;;;;;;4901575;28;82666;-71
2022/10/23 04:46:06;;;;;;;8.35;3.70;;;11.70;99.90;;;;;;4901816;28;81730;-70
2022/10/23 04:48:32;;;;;;;12.02;5.43;;;11.70;99.90;;;;;;4901721;28;81627;-70
2022/10/23 04:51:00;;;;;;;10.55;5.35;;;11.60;99.90;;;;;;4899440;28;81927;-72
2022/10/23 04:53:27;;;;;;;13.05;3.97;;;11.70;99.90;;;;;;4901795;28;82906;-73
2022/10/23 04:55:54;;;;;;;5.68;1.30;;;11.70;99.90;;;;;;4903853;28;81726;-72
2022/10/23 04:58:21;;;;;;;3.85;0.60;;;11.70;99.90;;;;;;4904051;28;81771;-72
2022/10/23 05:00:47;;;;;;;14.30;7.18;;;11.70;99.90;;;;;;4899067;28;81509;-73
2022/10/23 05:03:14;;;;;;;10.25;4.03;;;11.70;99.90;;;;;;4903603;28;81829;-71
2022/10/23 05:05:40;;;;;;;2.25;0.60;;;11.70;99.90;;;;;;4903314;28;82636;-76
2022/10/23 05:08:06;;;;;;;3.80;0.90;;;11.60;99.90;;;;;;4901078;28;82778;-71
2022/10/23 05:10:32;;;;;;;3.03;0.88;;;11.60;99.90;;;;;;4903087;28;83310;-73
2022/10/23 05:12:57;;;;;;;6.18;1.30;;;11.50;99.90;;;;;;4907528;28;81159;-72
2022/10/23 05:15:23;;;;;;;4.72;0.95;;;11.50;99.90;;;;;;4908445;28;81310;-72
2022/10/23 05:17:54;;;;;;;4.57;1.83;;;11.50;99.90;;;;;;4903037;28;82218;-72
2022/10/23 05:20:23;;;;;;;3.30;0.77;;;11.50;99.90;;;;;;4904479;28;81930;-70
2022/10/23 05:22:52;;;;;;;3.58;0.43;;;11.50;99.90;;;;;;4903692;28;81569;-72
2022/10/23 05:25:18;;;;;;;6.95;1.30;;;11.50;99.90;;;;;;4900862;28;82929;-72
2022/10/23 05:27:44;;;;;;;4.35;0.60;;;11.60;99.90;;;;;;4910966;28;82194;-70
2022/10/23 05:30:10;;;;;;;3.83;1.00;;;11.60;99.90;;;;;;4904231;28;81747;-71
2022/10/23 05:32:36;;;;;;;5.15;1.20;;;11.60;99.30;;;;;;4900847;28;82798;-69
2022/10/23 05:35:07;;;;;;;4.03;1.20;;;11.60;99.50;;;;;;4902158;28;83436;-77
2022/10/23 05:37:33;;;;;;;5.38;2.05;;;11.60;99.60;;;;;;4898287;28;82143;-71
2022/10/23 05:39:59;;;;;;;7.35;1.58;;;11.60;99.80;;;;;;4904594;28;81188;-72
2022/10/23 05:42:24;;;;;;;4.07;0.73;;;11.60;99.40;;;;;;4906319;28;81799;-70
2022/10/23 05:44:50;;;;;;;9.18;3.17;;;11.60;99.70;;;;;;4901209;28;81613;-71
2022/10/23 05:47:16;;;;;;;10.82;2.83;;;11.60;99.40;;;;;;4897463;28;81913;-71
2022/10/23 05:49:41;;;;;;;6.50;1.40;;;11.60;99.30;;;;;;4903390;28;82112;-71
2022/10/23 05:52:10;;;;;;;5.90;1.92;;;11.60;99.30;;;;;;4900473;28;81239;-74
2022/10/23 05:54:36;;;;;;;5.13;1.80;;;11.50;99.30;;;;;;4899212;28;81776;-75
2022/10/23 05:57:01;;;;;;;5.60;1.88;;;11.50;99.30;;;;;;4903091;28;83177;-71
2022/10/23 05:59:27;;;;;;;6.75;1.70;;;11.50;99.50;;;;;;4900109;28;84473;-71
2022/10/23 06:01:53;;;;;;;6.57;1.48;;;11.50;99.90;;;;;;4905425;28;81727;-70
2022/10/23 06:04:18;;;;;;;5.85;1.10;;;11.50;99.80;;;;;;4905287;28;81691;-73
2022/10/23 06:06:45;;;;;;;3.47;1.20;;;11.50;99.90;;;;;;4900942;28;82678;-72
2022/10/23 06:09:11;;;;;;;3.97;1.23;;;11.60;99.70;;;;;;4896028;28;82608;-71
2022/10/23 06:11:37;;;;;;;5.32;1.15;;;11.60;99.90;;;;;;4901466;28;81975;-71
2022/10/23 06:14:02;;;;;;;3.85;0.90;;;11.60;99.80;;;;;;4904537;28;81786;-71
2022/10/23 06:16:28;;;;;;;4.53;1.30;;;11.70;99.80;;;;;;4904152;28;81682;-73
2022/10/23 06:18:56;;;;;;;3.28;1.10;;;11.80;99.70;;;;;;4906000;28;81752;-72
2022/10/23 06:21:22;;;;;;;3.33;1.02;;;12.00;99.10;;;;;;4902947;28;82248;-71
2022/10/23 06:23:48;;;;;;;3.40;0.88;;;12.10;98.90;;;;;;4903619;28;81226;-72
2022/10/23 06:26:16;;;;;;;7.82;1.27;;;13.00;98.20;;;;;;4912508;28;81643;-71
2022/10/23 06:28:42;;;;;;;6.47;0.90;;;14.20;94.90;;;;;;4904076;28;81816;-72
2022/10/23 06:31:13;;;;;;;3.55;1.10;;;14.80;91.70;;;;;;4903130;28;82016;-72
2022/10/23 06:33:40;;;;;;;3.78;0.98;;;15.10;90.80;;;;;;4905248;28;81640;-70
2022/10/23 06:36:09;;;;;;;2.55;0.95;;;15.10;89.70;;;;;;4918113;28;82262;-71
2022/10/23 06:38:36;;;;;;;2.78;1.08;;;15.00;90.00;;;;;;4916576;28;81824;-73
2022/10/23 06:41:03;;;;;;;3.55;0.70;;;14.90;90.00;;;;;;4903959;28;82469;-75
2022/10/23 06:43:29;;;;;;;5.80;1.13;;;14.80;90.10;;;;;;4900216;28;82112;-73
2022/10/23 06:45:55;;;;;;;2.50;0.82;;;14.80;90.10;;;;;;4903253;28;83328;-73
2022/10/23 06:48:20;;;;;;;5.97;0.95;;;14.80;90.30;;;;;;4901731;28;86073;-71
2022/10/23 06:50:46;;;;;;;3.67;1.05;;;15.40;89.90;;;;;;4895889;28;81726;-72
2022/10/23 06:53:12;;;;;;;5.45;1.25;;;16.40;86.70;;;;;;4898099;28;82025;-71
2022/10/23 06:55:40;;;;;;;2.90;1.23;;;17.20;83.40;;;;;;4905626;28;81504;-73
2022/10/23 06:58:09;;;;;;;4.05;1.52;;;17.60;82.20;;;;;;4902345;28;82103;-72
2022/10/23 07:00:36;;;;;;;8.63;2.00;;;18.50;78.40;;;;;;4898278;28;83738;-71
2022/10/23 07:03:02;;;;;;;5.40;1.27;;;19.30;76.10;;;;;;4898428;28;84241;-72
2022/10/23 07:05:28;;;;;;;4.88;1.08;;;20.30;72.90;;;;;;4899551;28;82364;-70
2022/10/23 07:07:54;;;;;;;6.05;1.23;;;21.50;69.10;;;;;;4897555;28;81341;-71
2022/10/23 07:10:20;;;;;;;7.53;1.63;;;22.30;66.80;;;;;;4899687;28;82210;-73
2022/10/23 07:12:47;;;;;;;6.43;1.75;;;23.00;63.30;;;;;;4899902;28;81803;-70
2022/10/23 07:15:14;;;;;;;8.02;1.50;;;22.80;62.50;;;;;;4901840;28;83010;-70
2022/10/23 07:17:39;;;;;;;7.15;2.15;;;22.40;63.50;;;;;;4900951;28;81177;-72
2022/10/23 07:20:05;;;;;;;10.57;2.42;;;21.80;64.80;;;;;;4903983;28;81602;-70
2022/10/23 07:22:31;;;;;;;9.55;1.65;;;21.30;64.80;;;;;;4903579;28;81737;-71
2022/10/23 07:24:57;;;;;;;6.80;1.60;;;21.40;67.20;;;;;;4903184;28;81620;-77
2022/10/23 07:27:22;;;;;;;8.73;2.03;;;22.20;63.90;;;;;;4896827;28;82438;-73
2022/10/23 07:29:52;;;;;;;7.53;1.45;;;22.80;63.60;;;;;;4901262;28;81276;-73
2022/10/23 07:32:18;;;;;;;;;;;23.30;61.50;;;;;;4888041;28;82117;-75
2022/10/23 07:34:44;;;;;;;6.65;1.80;;;24.00;60.20;;;;;;4906571;28;82611;-76
2022/10/23 07:37:09;;;;;;;7.65;1.98;;;24.40;59.80;;;;;;4895897;28;82930;-76
2022/10/23 07:39:35;;;;;;;10.13;2.10;;;24.70;58.20;;;;;;4901579;28;82048;-74
2022/10/23 07:42:01;;;;;;;6.90;2.17;;;25.50;56.90;;;;;;4901039;28;82163;-73
2022/10/23 07:44:26;;;;;;;6.95;2.95;;;26.00;54.50;;;;;;4901436;28;82016;-72
2022/10/23 07:46:52;;;;;;;7.43;2.13;;;26.30;54.90;;;;;;4896729;28;81916;-73
2022/10/23 07:49:18;;;;;;;10.32;2.65;;;26.90;52.80;;;;;;4898565;28;82165;-75
2022/10/23 07:51:43;;;;;;;4.28;2.45;;;26.20;54.30;;;;;;4892600;28;81939;-73
2022/10/23 07:54:11;;;;;;;4.63;2.22;;;26.40;53.50;;;;;;4896110;28;82228;-70
2022/10/23 07:56:37;;;;;;;7.40;1.55;;;27.10;52.50;;;;;;4900970;28;82091;-71
2022/10/23 07:59:03;;;;;;;5.78;2.25;;;27.50;52.60;;;;;;4899122;28;82952;-70
2022/10/23 08:01:35;;;;;;;4.18;1.77;;;29.10;49.50;;;;;;4903566;28;81659;-70
2022/10/23 08:04:01;;;;;;;4.00;1.83;;;29.80;48.30;;;;;;4905985;28;82463;-71
2022/10/23 08:06:27;;;;;;;9.02;1.55;;;30.80;46.70;;;;;;4898495;28;82409;-70
2022/10/23 08:08:53;;;;;;;6.53;1.67;;;31.20;45.80;;;;;;4899136;28;81619;-72
2022/10/23 08:11:25;;;;;;;4.38;1.55;;;32.20;44.70;;;;;;4899423;28;81650;-70
2022/10/23 08:13:55;;;;;;;4.72;1.45;;;32.20;44.60;;;;;;4900968;28;81974;-71
2022/10/23 08:16:22;;;;;;;4.53;1.45;;;32.90;44.40;;;;;;4901875;28;81356;-73
2022/10/23 08:18:48;;;;;;;4.72;1.48;;;32.60;43.00;;;;;;4901410;28;81305;-72
2022/10/23 08:21:14;;;;;;;3.60;2.10;;;33.10;42.70;;;;;;4898128;28;83336;-74
2022/10/23 08:23:40;;;;;;;3.30;2.03;;;34.00;42.30;;;;;;4893984;28;82995;-75
2022/10/23 08:26:06;;;;;;;3.53;1.98;;;33.20;41.30;;;;;;4898949;28;82278;-74
2022/10/23 08:28:33;;;;;;;3.30;2.38;;;33.60;42.10;;;;;;4903849;28;83068;-76
2022/10/23 08:31:05;;;;;;;3.22;2.10;;;34.80;41.40;;;;;;4898732;28;83816;-70
2022/10/23 08:33:30;;;;;;;5.30;2.58;;;35.70;40.00;;;;;;4896865;28;82137;-72
2022/10/23 08:35:56;;;;;;;5.70;2.90;;;36.00;39.00;;;;;;4895283;28;82080;-73
2022/10/23 08:38:22;;;;;;;5.45;2.15;;;35.70;38.60;;;;;;4898901;28;81653;-72
2022/10/23 08:40:48;;;;;;;8.23;2.30;;;35.90;39.40;;;;;;4898347;28;81715;-70
2022/10/23 08:43:20;;;;;;;12.60;2.00;;;35.90;42.80;;;;;;4902249;28;82127;-69
2022/10/23 08:46:01;;;;;;;4.25;2.40;;;35.70;42.80;;;;;;4900911;28;82065;-74
2022/10/23 08:48:32;;;;;;;3.08;1.85;;;35.70;39.40;;;;;;4905037;28;82405;-73
2022/10/23 08:51:30;;;;;;;4.75;2.25;;;36.50;39.30;;;;;;4897364;28;81935;-72
2022/10/23 08:54:05;;;;;;;3.20;1.83;;;37.20;38.40;;;;;;4895053;28;81778;-72
2022/10/23 08:56:43;;;;;;;5.20;1.67;;;36.30;37.90;;;;;;4899394;28;81989;-72
2022/10/23 08:59:26;;;;;;;7.13;3.08;;;34.40;39.40;;;;;;4903613;28;81916;-72
2022/10/23 09:02:11;;;;;;;5.95;3.33;;;32.00;42.20;;;;;;4912263;28;81712;-72
2022/10/23 09:04:45;;;;;;;3.90;1.40;;;31.10;44.90;;;;;;4901966;28;81540;-73
2022/10/23 09:07:31;;;;;;;3.60;2.10;;;31.00;45.10;;;;;;4905269;28;82230;-71
2022/10/23 09:10:21;;;;;;;3.47;1.20;;;30.90;45.90;;;;;;4901970;28;82100;-71
2022/10/23 09:12:47;;;;;;;2.38;1.52;;;30.40;45.30;;;;;;4906595;28;81739;-72
2022/10/23 09:15:39;;;;;;;2.28;1.42;;;29.90;46.40;;;;;;4904058;28;83168;-71
2022/10/23 09:18:15;;;;;;;2.88;1.13;;;29.30;46.90;;;;;;4893753;28;83299;-73
2022/10/23 09:20:44;;;;;;;5.63;1.38;;;29.20;47.30;;;;;;4904018;28;81370;-73
2022/10/23 09:23:20;;;;;;;5.55;1.33;;;29.60;47.90;;;;;;4904035;28;81733;-71
2022/10/23 09:25:50;;;;;;;4.93;1.27;;;30.20;47.10;;;;;;4903895;28;82103;-72
2022/10/23 09:28:30;;;;;;;3.20;1.10;;;31.40;45.50;;;;;;4902190;28;85979;-73
2022/10/23 09:31:08;;;;;;;6.45;1.55;;;31.70;45.30;;;;;;4902728;28;81910;-72
2022/10/23 09:33:36;;;;;;;2.25;1.25;;;31.70;44.20;;;;;;4904143;28;82245;-72
2022/10/23 09:36:04;;;;;;;4.88;1.27;;;31.40;44.60;;;;;;4902979;28;82228;-72
2022/10/23 09:38:57;;;;;;;7.55;1.33;;;30.60;45.30;;;;;;4903809;28;83902;-71
2022/10/23 09:41:38;;;;;;;3.80;1.13;;;30.50;45.50;;;;;;4901850;28;82227;-73
2022/10/23 09:44:07;;;;;;;2.15;1.00;;;30.20;45.40;;;;;;4903870;28;81809;-71
2022/10/23 09:46:41;;;;;;;7.20;0.90;;;29.40;46.50;;;;;;4904310;28;82278;-72
2022/10/23 09:49:28;;;;;;;2.22;0.90;;;28.80;48.20;;;;;;4903263;28;82504;-72
2022/10/23 09:52:08;;;;;;;3.85;0.90;;;28.00;49.00;;;;;;4903699;28;81636;-71
2022/10/23 09:54:49;;;;;;;3.40;1.17;;;27.10;50.20;;;;;;4903046;28;81776;-71
2022/10/23 09:57:42;;;;;;;2.20;1.02;;;26.50;50.90;;;;;;4903694;28;82084;-73
2022/10/23 10:00:24;;;;;;;3.88;1.88;;;25.90;52.50;;;;;;4902429;28;81869;-72
2022/10/23 10:02:59;;;;;;;2.80;0.88;;;25.40;54.80;;;;;;4899106;28;81948;-70
2022/10/23 10:05:31;;;;;;;6.95;1.15;;;25.00;55.00;;;;;;4903988;28;81708;-71
2022/10/23 10:08:12;;;;;;;5.03;1.42;;;24.60;55.70;;;;;;4902674;28;83238;-70
2022/10/23 10:10:43;;;;;;;6.10;0.90;;;24.50;56.20;;;;;;4902085;28;82893;-69
2022/10/23 10:13:31;;;;;;;4.88;1.17;;;24.60;56.10;;;;;;4900877;28;81337;-72
2022/10/23 10:16:08;;;;;;;1.92;0.85;;;24.60;56.90;;;;;;4904070;28;81265;-72
2022/10/23 10:18:40;;;;;;;3.92;1.10;;;24.40;57.60;;;;;;4902952;28;82304;-71
2022/10/23 10:21:17;;;;;;;7.68;1.08;;;24.10;58.40;;;;;;4902255;28;81627;-72
2022/10/23 10:24:10;;;;;;;5.70;1.05;;;23.80;59.30;;;;;;4903372;28;81933;-74
2022/10/23 10:26:54;;;;;;;5.28;0.93;;;23.40;59.40;;;;;;4895829;28;81263;-70
2022/10/23 10:29:57;;;;;;;2.90;1.02;;;23.10;61.70;;;;;;4901029;28;81951;-72
2022/10/23 10:32:41;;;;;;;4.43;0.75;;;22.60;63.00;;;;;;4900393;28;81770;-72
2022/10/23 10:35:21;;;;;;;1.98;0.90;;;22.40;61.30;;;;;;4897025;28;82714;-70
2022/10/23 10:37:49;;;;;;;4.18;0.88;;;22.30;62.60;;;;;;4902544;28;81466;-70
2022/10/23 10:40:32;;;;;;;4.82;1.15;;;22.40;62.80;;;;;;4901118;28;82245;-71
2022/10/23 10:43:22;;;;;;;3.38;0.80;;;22.30;64.10;;;;;;4899964;28;81711;-71
2022/10/23 10:45:58;;;;;;;4.97;0.90;;;22.40;62.40;;;;;;4898934;28;81626;-71
2022/10/23 10:48:36;;;;;;;;;;;22.40;62.80;;;;;;4900969;28;82816;-71
2022/10/23 10:51:06;;;;;;;3.58;0.82;;;22.30;63.90;;;;;;4900346;28;87502;-70
2022/10/23 10:54:09;;;;;;;6.07;1.58;;;22.40;64.30;;;;;;4897555;28;86951;-72
2022/10/23 10:56:40;;;;;;;2.78;0.70;;;22.40;61.20;;;;;;4899587;28;87074;-72
2022/10/23 10:59:36;;;;;;;1.75;0.75;;;22.30;64.40;;;;;;4893140;28;87179;-71
2022/10/23 11:02:17;;;;;;;3.80;0.73;;;22.20;64.20;;;;;;4885898;28;88454;-71
2022/10/23 11:04:50;;;;;;;3.17;0.75;;;22.20;64.90;;;;;;4899815;28;87672;-72
2022/10/23 11:07:26;;;;;;;4.68;0.93;;;22.10;64.40;;;;;;4899591;28;86496;-71
2022/10/23 11:09:52;;;;;;;3.15;0.60;;;22.00;63.10;;;;;;4891893;28;87160;-74
2022/10/23 11:12:26;;;;;;;3.28;1.05;;;21.80;64.70;;;;;;4898428;28;88379;-70
2022/10/23 11:14:52;;;;;;;5.95;0.70;;;21.60;64.00;;;;;;4901062;28;87191;-71
2022/10/23 11:17:24;;;;;;;3.38;0.90;;;21.60;65.90;;;;;;4893646;28;86504;-71
2022/10/23 11:20:03;;;;;;;3.08;1.00;;;21.60;65.50;;;;;;4898959;28;86253;-72
2022/10/23 11:22:57;;;;;;;5.68;1.02;;;21.60;67.50;;;;;;4899961;28;87400;-70
2022/10/23 11:25:49;;;;;;;2.92;1.05;;;21.70;68.20;;;;;;4881496;28;87154;-71
2022/10/23 11:28:20;;;;;;;4.15;1.02;;;21.60;67.20;;;;;;4906252;28;87594;-71
2022/10/23 11:31:04;;;;;;;2.88;1.33;;;21.60;66.80;;;;;;4896069;28;86550;-72
2022/10/23 11:34:08;;;;;;;3.25;0.90;;;21.50;68.10;;;;;;4896660;28;86784;-72
2022/10/23 11:36:49;;;;;;;1.70;0.75;;;21.70;66.00;;;;;;4887257;28;87791;-71
2022/10/23 11:39:29;;;;;;;5.35;1.13;;;21.80;66.30;;;;;;4900519;28;86904;-72
2022/10/23 11:41:59;;;;;;;3.85;1.25;;;21.80;66.30;;;;;;4897061;28;86652;-71
2022/10/23 11:44:45;;;;;;;5.72;1.13;;;21.90;66.90;;;;;;4898197;28;87172;-72
2022/10/23 11:47:32;;;;;;;2.97;1.13;;;21.90;67.60;;;;;;4895183;28;86799;-71
2022/10/23 11:50:07;;;;;;;2.17;0.88;;;21.70;67.10;;;;;;4898695;28;86956;-72
2022/10/23 11:52:57;;;;;;;4.43;1.30;;;21.70;67.80;;;;;;4899412;28;86612;-71
2022/10/23 11:55:28;;;;;;;3.38;1.23;;;21.70;69.10;;;;;;4896705;28;87673;-73
2022/10/23 11:58:06;;;;;;;3.80;1.45;;;21.40;70.80;;;;;;4893994;28;87966;-73
2022/10/23 12:00:37;;;;;;;6.78;1.05;;;21.20;70.20;;;;;;4892720;28;86346;-72
2022/10/23 12:03:04;;;;;;;4.97;1.52;;;20.90;70.30;;;;;;4898362;28;87006;-73
2022/10/23 12:05:33;;;;;;;8.02;0.93;;;20.80;71.20;;;;;;4891286;28;87263;-73
2022/10/23 12:07:59;;;;;;;;;;;20.90;71.60;;;;;;4893006;28;86408;-73
2022/10/23 12:10:44;;;;;;;2.88;0.70;;;20.60;71.40;;;;;;4898973;28;86179;-73
2022/10/23 12:13:30;;;;;;;5.55;0.73;;;20.50;71.60;;;;;;4896037;28;85532;-73
2022/10/23 12:15:56;;;;;;;3.60;0.63;;;20.80;71.70;;;;;;4896011;28;87420;-72
2022/10/23 12:18:22;;;;;;;6.15;0.80;;;20.70;70.60;;;;;;4895999;28;87430;-73
2022/10/23 12:20:51;;;;;;;1.70;0.70;;;20.50;71.70;;;;;;4889623;28;87232;-74
2022/10/23 12:23:50;;;;;;;3.78;1.00;;;20.60;70.30;;;;;;4888561;28;86813;-72
2022/10/23 12:26:16;;;;;;;3.28;0.82;;;20.50;71.20;;;;;;4887189;28;86594;-72
2022/10/23 12:29:11;;;;;;;3.70;0.73;;;20.40;70.60;;;;;;4892456;28;88251;-73
2022/10/23 12:32:25;;;;;;;2.70;0.70;;;20.30;72.00;;;;;;4885697;28;87226;-73
2022/10/23 12:35:09;;;;;;;5.95;1.85;;;20.20;73.30;;;;;;4870138;28;86746;-73
2022/10/23 12:37:48;;;;;;;5.13;0.90;;;20.10;70.20;;;;;;4889288;28;87338;-72
2022/10/23 12:40:14;;;;;;;4.93;0.63;;;20.00;71.10;;;;;;4890711;28;86166;-73
2022/10/23 12:42:48;;;;;;;3.55;0.75;;;19.80;71.50;;;;;;4890814;28;86214;-73
2022/10/23 12:45:25;;;;;;;4.88;1.17;;;19.70;72.30;;;;;;4885753;28;87019;-72
2022/10/23 12:47:51;;;;;;;4.10;1.10;;;19.70;72.30;;;;;;4887673;28;87901;-73
2022/10/23 12:50:20;;;;;;;1.98;0.80;;;19.70;73.90;;;;;;4891598;28;88949;-72
2022/10/23 12:52:57;;;;;;;2.60;1.10;;;19.50;73.70;;;;;;4897709;28;87848;-73
2022/10/23 12:55:25;;;;;;;2.72;0.95;;;19.40;74.50;;;;;;4898208;28;86480;-71
2022/10/23 12:57:52;;;;;;;4.30;1.30;;;19.50;74.90;;;;;;4896354;28;86754;-71
2022/10/23 13:00:22;;;;;;;4.00;0.90;;;19.50;74.50;;;;;;4883538;28;86820;-73
2022/10/23 13:03:02;;;;;;;5.57;1.23;;;19.50;74.90;;;;;;4888902;28;86713;-72
2022/10/23 13:05:29;;;;;;;4.60;1.30;;;19.50;75.30;;;;;;4886146;28;85799;-73
2022/10/23 13:07:58;;;;;;;5.43;1.00;;;19.70;75.00;;;;;;4883424;28;87195;-73
2022/10/23 13:10:24;;;;;;;5.32;1.10;;;19.60;74.90;;;;;;4890353;28;86419;-72
2022/10/23 13:13:06;;;;;;;4.30;0.90;;;19.40;75.30;;;;;;4896842;28;87995;-73
2022/10/23 13:15:43;;;;;;;3.05;0.90;;;19.40;75.60;;;;;;4896739;28;86373;-72
2022/10/23 13:18:12;;;;;;;4.32;0.93;;;19.40;76.10;;;;;;4896039;28;88802;-72
2022/10/23 13:21:01;;;;;;;5.00;0.90;;;19.40;75.50;;;;;;4895051;28;86598;-72
2022/10/23 13:23:33;;;;;;;;;;;19.50;76.10;;;;;;4892787;28;86301;-72
2022/10/23 13:26:05;;;;;;;3.22;0.73;;;19.20;76.50;;;;;;4899648;28;87999;-72
2022/10/23 13:28:32;;;;;;;4.63;0.57;;;19.20;77.40;;;;;;4896719;28;87268;-73
2022/10/23 13:31:11;;;;;;;3.30;0.73;;;19.20;76.60;;;;;;4896609;28;86280;-72
2022/10/23 13:33:42;;;;;;;1.98;0.63;;;19.00;76.10;;;;;;4898372;28;87464;-72
2022/10/23 13:36:13;;;;;;;3.83;0.60;;;19.00;76.70;;;;;;4902553;28;86483;-72
2022/10/23 13:38:40;;;;;;;3.28;0.70;;;18.90;76.60;;;;;;4897433;28;89301;-72
2022/10/23 13:41:15;;;;;;;3.90;0.82;;;18.90;77.10;;;;;;4896091;28;91367;-72
2022/10/23 13:43:42;;;;;;;2.78;0.80;;;18.80;76.60;;;;;;4893597;28;87173;-72
2022/10/23 13:46:20;;;;;;;1.90;0.60;;;18.80;77.80;;;;;;4893113;28;87163;-72
2022/10/23 13:48:46;;;;;;;4.82;0.73;;;18.80;77.50;;;;;;4895216;28;87249;-72
2022/10/23 13:51:20;;;;;;;4.45;1.65;;;18.90;77.70;;;;;;4897956;28;86994;-73
2022/10/23 13:53:47;;;;;;;2.28;0.80;;;19.00;77.70;;;;;;4897974;28;86726;-72
2022/10/23 13:56:14;;;;;;;4.05;0.77;;;19.00;78.00;;;;;;4893895;28;87274;-72
2022/10/23 13:58:40;;;;;;;2.45;0.63;;;19.00;77.90;;;;;;4895174;28;87922;-73
2022/10/23 14:01:21;;;;;;;3.13;0.52;;;19.10;77.00;;;;;;4893334;28;86974;-72
2022/10/23 14:03:47;;;;;;;2.80;0.75;;;19.10;77.30;;;;;;4894220;28;87644;-72
2022/10/23 14:06:13;;;;;;;6.47;0.70;;;19.10;77.10;;;;;;4894321;28;87080;-72
2022/10/23 14:08:39;;;;;;;1.90;0.65;;;19.20;76.00;;;;;;4896151;28;87678;-72
2022/10/23 14:11:05;;;;;;;2.58;0.70;;;19.10;76.30;;;;;;4896274;28;87550;-72
2022/10/23 14:13:30;;;;;;;2.15;0.80;;;19.10;77.30;;;;;;4898785;28;86872;-72
2022/10/23 14:15:56;;;;;;;2.97;0.50;;;19.20;77.10;;;;;;4897113;28;86963;-72
2022/10/23 14:18:22;;;;;;;4.32;0.75;;;19.20;76.50;;;;;;4894620;28;86480;-72
2022/10/23 14:20:48;;;;;;;2.60;0.50;;;19.20;76.10;;;;;;4893790;28;86943;-73
2022/10/23 14:23:14;;;;;;;1.65;0.40;;;19.10;75.90;;;;;;4902752;28;87446;-72
2022/10/23 14:25:39;;;;;;;2.10;0.43;;;19.00;76.70;;;;;;4893269;28;86459;-72
2022/10/23 14:28:05;;;;;;;3.85;0.63;;;18.90;77.40;;;;;;4891156;28;87712;-72
2022/10/23 14:30:31;;;;;;;3.20;0.55;;;18.70;78.40;;;;;;4898131;28;87786;-72
2022/10/23 14:32:57;;;;;;;4.35;0.43;;;18.80;78.60;;;;;;4892606;28;86826;-72
2022/10/23 14:35:24;;;;;;;1.88;0.47;;;18.80;78.60;;;;;;4896364;28;86324;-72
2022/10/23 14:37:50;;;;;;;2.00;0.50;;;18.70;79.00;;;;;;4898893;28;87213;-73
2022/10/23 14:40:15;;;;;;;2.63;0.40;;;18.60;77.90;;;;;;4899174;28;87244;-72
2022/10/23 14:42:41;;;;;;;1.60;0.35;;;18.50;78.00;;;;;;4904924;28;88784;-72
2022/10/23 14:45:07;;;;;;;4.55;1.02;;;18.60;78.00;;;;;;4894912;28;85929;-72
2022/10/23 14:47:33;;;;;;;3.90;0.32;;;18.60;77.80;;;;;;4891847;28;88082;-72
2022/10/23 14:49:58;;;;;;;5.03;0.57;;;18.50;77.70;;;;;;4899347;28;86276;-72
2022/10/23 14:52:24;;;;;;;4.07;0.50;;;18.50;77.60;;;;;;4895866;28;87331;-72
2022/10/23 14:54:52;;;;;;;2.65;0.40;;;18.50;77.50;;;;;;4894579;28;87255;-72
2022/10/23 14:57:20;;;;;;;4.47;0.70;;;18.60;78.00;;;;;;4896851;28;87159;-72
2022/10/23 14:59:46;;;;;;;7.53;3.80;;;18.60;79.10;;;;;;4896719;28;86619;-72
2022/10/23 15:02:12;;;;;;;13.18;6.55;;;18.40;79.40;;;;;;4894406;28;86610;-72
2022/10/23 15:04:38;;;;;;;5.20;1.95;;;18.40;80.10;;;;;;4892698;28;86799;-73
2022/10/23 15:07:04;;;;;;;4.07;0.90;;;18.40;80.30;;;;;;4893010;28;87253;-72
2022/10/23 15:09:35;;;;;;;4.20;0.90;;;18.30;82.40;;;;;;4893759;28;86849;-72
2022/10/23 15:12:02;;;;;;;1.95;1.00;;;18.30;81.50;;;;;;4893092;28;86393;-72
2022/10/23 15:14:28;;;;;;;2.13;0.57;;;18.10;81.60;;;;;;4893179;28;86660;-71
2022/10/23 15:16:53;;;;;;;2.13;0.70;;;18.20;82.10;;;;;;4894505;28;87446;-72
2022/10/23 15:19:19;;;;;;;3.50;0.77;;;18.10;83.10;;;;;;4884816;28;88069;-70
2022/10/23 15:21:46;;;;;;;2.33;0.50;;;18.00;82.70;;;;;;4894272;28;86234;-72
2022/10/23 15:24:12;;;;;;;1.63;0.73;;;18.00;83.40;;;;;;4900645;28;87511;-71
2022/10/23 15:26:38;;;;;;;5.65;1.05;;;17.90;84.50;;;;;;4900762;28;86646;-70
2022/10/23 15:29:04;;;;;;;4.13;0.88;;;17.80;84.40;;;;;;4897002;28;86980;-71
2022/10/23 15:31:42;;;;;;;20.33;5.85;;;17.80;85.30;;;;;;4894612;28;87032;-71
2022/10/23 15:34:20;;;;;;;9.70;3.00;;;17.70;86.70;;;;;;4898772;28;85952;-71
2022/10/23 15:36:48;;;;;;;2.30;0.80;;;17.80;88.80;;;;;;4908971;28;87659;-71
2022/10/23 15:39:17;;;;;;;4.25;1.10;;;17.90;87.00;;;;;;4893991;28;87165;-71
2022/10/23 15:41:43;;;;;;;4.13;0.73;;;17.90;89.40;;;;;;4891752;28;87763;-72
2022/10/23 15:44:12;;;;;;;3.55;0.70;;;17.90;86.00;;;;;;4900352;28;86564;-70
2022/10/23 15:46:38;;;;;;;;;;;17.80;87.60;;;;;;4898740;28;86508;-72
2022/10/23 15:49:04;;;;;;;4.07;0.73;;;17.80;87.50;;;;;;4890334;28;86634;-71
2022/10/23 15:51:30;;;;;;;2.03;0.50;;;17.90;86.20;;;;;;4894977;28;86964;-72
2022/10/23 15:53:56;;;;;;;3.78;1.77;;;17.80;85.30;;;;;;4896431;28;86826;-70
2022/10/23 15:56:23;;;;;;;4.53;1.90;;;17.80;85.40;;;;;;4894423;28;88355;-70
2022/10/23 15:58:49;;;;;;;5.65;2.20;;;17.80;85.30;;;;;;4895861;28;87289;-70
2022/10/23 16:01:15;;;;;;;4.30;1.90;;;17.70;85.60;;;;;;4891440;28;86914;-70
2022/10/23 16:03:40;;;;;;;5.63;1.98;;;17.70;86.20;;;;;;4894175;28;86546;-72
2022/10/23 16:06:10;;;;;;;5.57;1.70;;;17.60;88.00;;;;;;4893258;28;88202;-72
2022/10/23 16:08:36;;;;;;;5.00;1.80;;;17.60;88.50;;;;;;4895967;28;87852;-71
2022/10/23 16:11:02;;;;;;;9.15;1.00;;;17.60;87.50;;;;;;4894206;28;86372;-72
2022/10/23 16:13:28;;;;;;;2.70;0.93;;;17.60;87.60;;;;;;4888526;28;86941;-72
2022/10/23 16:15:53;;;;;;;4.78;0.90;;;17.50;88.20;;;;;;4894106;28;87502;-71
2022/10/23 16:18:20;;;;;;;7.97;1.50;;;17.50;88.80;;;;;;4891159;28;86894;-72
2022/10/23 16:20:46;;;;;;;5.15;1.30;;;17.40;89.80;;;;;;4889118;28;87229;-71
2022/10/23 16:23:11;;;;;;;6.45;1.42;;;17.20;90.50;;;;;;4898352;28;87000;-71
2022/10/23 16:25:37;;;;;;;4.18;1.25;;;17.10;90.80;;;;;;4896432;28;87392;-71
2022/10/23 16:28:04;;;;;;;4.35;1.13;;;17.10;91.10;;;;;;4894132;28;87008;-72
2022/10/23 16:30:30;;;;;;;3.58;1.38;;;17.10;91.10;;;;;;4892689;28;87324;-73
2022/10/23 16:32:55;;;;;;;4.82;1.80;;;17.00;90.90;;;;;;4890124;28;86702;-72
2022/10/23 16:35:22;;;;;;;3.67;1.65;;;17.00;91.10;;;;;;4893557;28;87071;-72
2022/10/23 16:37:48;;;;;;;3.08;0.90;;;16.90;91.60;;;;;;4897155;28;86890;-71
2022/10/23 16:40:13;;;;;;;1.83;0.70;;;16.70;92.10;;;;;;4895493;28;87500;-71
2022/10/23 16:42:40;;;;;;;2.95;0.77;;;16.60;92.50;;;;;;4892442;28;86217;-72
2022/10/23 16:45:07;;;;;;;2.00;0.63;;;16.50;92.90;;;;;;4896519;28;87501;-73
2022/10/23 16:47:33;;;;;;;1.80;0.50;;;16.40;92.90;;;;;;4900887;28;88297;-71
2022/10/23 16:49:59;;;;;;;4.15;0.60;;;16.40;92.80;;;;;;4893971;28;86565;-70
2022/10/23 16:52:26;;;;;;;5.22;1.50;;;16.40;92.70;;;;;;4895258;28;86377;-71
2022/10/23 16:54:51;;;;;;;6.50;1.40;;;16.40;92.60;;;;;;4896365;28;87820;-71
2022/10/23 16:57:17;;;;;;;6.63;0.98;;;16.40;92.60;;;;;;4892320;28;87138;-71
2022/10/23 16:59:43;;;;;;;4.18;1.05;;;16.40;92.80;;;;;;4890374;28;87212;-71
2022/10/23 17:02:11;;;;;;;4.05;1.00;;;16.40;92.60;;;;;;4897693;28;86343;-71
2022/10/23 17:04:37;;;;;;;4.22;1.10;;;16.40;93.10;;;;;;4897225;28;87292;-72
2022/10/23 17:07:04;;;;;;;7.57;1.00;;;16.30;93.30;;;;;;4898433;28;86545;-74